Time;durP1;ratioP1;P1;durP2;ratioP2;P2;SDS_P1;SDS_P2;PMS_P1;PMS_P2;Temp;Humidity;BMP_temperature;BMP_pressure;BME280_temperature;BME280_humidity;BME280_pressure;Samples;Min_cycle;Max_cycle;Signal;HPM_P1;HPM_P2
2022/12/10 00:02:10;;;;;;;11.68;8.35;;;;;;;8.89;78.63;94284.16;5018182;28;20210;-68
2022/12/10 00:04:37;;;;;;;10.82;8.05;;;;;;;8.91;78.57;94283.81;5021402;28;20570;-68
2022/12/10 00:07:03;;;;;;;11.15;7.53;;;;;;;8.94;78.40;94285.84;5021337;28;20253;-68
2022/12/10 00:09:31;;;;;;;11.18;8.30;;;;;;;8.99;78.21;94287.50;5021220;28;20203;-68
2022/12/10 00:11:58;;;;;;;10.05;7.38;;;;;;;9.03;78.06;94291.13;5021253;28;20205;-68
2022/12/10 00:14:25;;;;;;;10.23;7.97;;;;;;;9.04;77.94;94285.28;5021178;28;20202;-68
2022/12/10 00:16:51;;;;;;;10.65;7.35;;;;;;;9.04;77.89;94276.19;5021301;28;20198;-68
2022/12/10 00:19:18;;;;;;;9.73;7.70;;;;;;;9.00;78.12;94280.81;5021402;28;20611;-68
2022/12/10 00:21:46;;;;;;;11.75;8.23;;;;;;;8.95;78.10;94284.69;5038449;28;20186;-68
2022/12/10 00:24:13;;;;;;;11.93;8.27;;;;;;;8.91;78.46;94284.59;5021067;28;20604;-68
2022/12/10 00:26:41;;;;;;;10.52;7.80;;;;;;;8.91;78.41;94281.84;5038350;28;20590;-68
2022/12/10 00:29:12;;;;;;;10.85;7.90;;;;;;;8.94;78.46;94274.84;5038226;28;20279;-68
2022/12/10 00:31:39;;;;;;;12.02;8.48;;;;;;;8.97;78.54;94279.63;5038292;28;20187;-68
2022/12/10 00:34:09;;;;;;;11.85;8.35;;;;;;;8.98;78.09;94272.97;5020799;28;20194;-68
2022/12/10 00:36:39;;;;;;;11.13;8.90;;;;;;;9.01;78.05;94277.75;5020999;28;20265;-68
2022/12/10 00:39:06;;;;;;;10.65;8.55;;;;;;;9.02;78.12;94284.03;5038271;28;20271;-68
2022/12/10 00:41:33;;;;;;;11.90;8.63;;;;;;;9.00;78.14;94259.63;5020766;28;20202;-68
2022/12/10 00:44:01;;;;;;;12.77;9.70;;;;;;;9.00;78.26;94278.09;5020612;28;20202;-68
2022/12/10 00:46:28;;;;;;;15.60;9.63;;;;;;;9.02;77.77;94278.53;5037678;28;20210;-68
2022/12/10 00:48:55;;;;;;;14.48;10.18;;;;;;;9.01;78.02;94265.94;5037832;28;20256;-68
2022/12/10 00:51:23;;;;;;;15.77;9.73;;;;;;;9.01;78.33;94286.00;5020600;28;20199;-68
2022/12/10 00:53:51;;;;;;;13.13;8.82;;;;;;;9.00;78.49;94278.09;5020417;28;20562;-68
2022/12/10 00:56:21;;;;;;;14.13;8.43;;;;;;;8.98;78.81;94274.91;5037843;28;20186;-68
2022/12/10 00:58:49;;;;;;;13.95;9.30;;;;;;;8.97;78.45;94273.28;5020618;28;20214;-68
2022/12/10 01:01:20;;;;;;;13.75;9.75;;;;;;;9.00;78.64;94276.13;5020746;28;20500;-68
2022/12/10 01:03:47;;;;;;;12.55;8.82;;;;;;;8.98;78.61;94283.94;5037676;28;20198;-68
2022/12/10 01:06:17;;;;;;;12.10;7.28;;;;;;;8.99;78.41;94280.03;5037568;28;20233;-69
2022/12/10 01:08:44;;;;;;;11.73;7.85;;;;;;;9.04;78.23;94278.94;5037625;28;20190;-69
2022/12/10 01:11:13;;;;;;;10.00;7.28;;;;;;;9.04;78.61;94279.75;5020166;28;20206;-68
2022/12/10 01:13:40;;;;;;;10.60;7.53;;;;;;;9.05;78.59;94283.31;5019382;28;20552;-68
2022/12/10 01:16:08;;;;;;;11.90;7.60;;;;;;;9.06;78.67;94265.63;5003877;28;20190;-68
2022/12/10 01:18:37;;;;;;;9.65;7.55;;;;;;;9.05;78.92;94292.34;5037934;28;20202;-69
2022/12/10 01:21:04;;;;;;;9.23;7.38;;;;;;;9.07;78.76;94256.22;5036483;28;20198;-68
2022/12/10 01:23:33;;;;;;;13.30;7.65;;;;;;;9.07;79.02;94256.22;5036482;28;20199;-68
2022/12/10 01:26:01;;;;;;;10.98;7.45;;;;;;;9.08;78.77;94255.09;5019882;28;20222;-68
2022/12/10 01:28:30;;;;;;;8.82;7.35;;;;;;;9.06;78.98;94268.38;5016789;28;20227;-68
2022/12/10 01:30:57;;;;;;;8.88;6.60;;;;;;;9.06;78.90;94257.38;5016821;28;20211;-68
2022/12/10 01:33:24;;;;;;;9.30;6.88;;;;;;;9.07;79.24;94267.22;5016002;28;20207;-68
2022/12/10 01:35:52;;;;;;;11.40;7.22;;;;;;;9.05;79.52;94240.09;5016508;28;20208;-68
2022/12/10 01:38:18;;;;;;;9.35;7.00;;;;;;;9.07;79.34;94257.00;5017375;28;20266;-68
2022/12/10 01:40:45;;;;;;;8.73;6.93;;;;;;;9.07;79.49;94253.47;5016902;28;20203;-68
2022/12/10 01:43:13;;;;;;;12.52;7.70;;;;;;;9.10;79.27;94259.03;5032731;28;20210;-68
2022/12/10 01:45:40;;;;;;;12.80;7.50;;;;;;;9.14;79.10;94265.41;5016423;28;20211;-68
2022/12/10 01:48:07;;;;;;;11.98;7.70;;;;;;;9.15;78.80;94252.47;5016132;28;20207;-68
2022/12/10 01:50:33;;;;;;;9.65;6.95;;;;;;;9.16;78.97;94260.34;5016750;28;20670;-68
2022/12/10 01:53:02;;;;;;;11.15;7.07;;;;;;;9.16;79.20;94249.34;5016428;28;20249;-68
2022/12/10 01:55:47;;;;;;;9.35;7.43;;;;;;;9.15;79.40;94253.25;5017121;28;20194;-68
2022/12/10 01:58:16;;;;;;;9.23;7.47;;;;;;;9.12;79.69;94244.94;5016881;28;20191;-68
2022/12/10 02:00:48;;;;;;;12.05;7.93;;;;;;;9.08;79.81;94255.09;5016882;28;20187;-68
2022/12/10 02:03:19;;;;;;;12.18;7.72;;;;;;;9.12;79.87;94231.19;5016705;28;20203;-68
2022/12/10 02:05:53;;;;;;;9.07;7.22;;;;;;;9.15;79.94;94255.22;5016755;28;20211;-68
2022/12/10 02:08:26;;;;;;;13.05;7.88;;;;;;;9.17;79.92;94258.38;5016446;28;20230;-68
2022/12/10 02:11:00;;;;;;;9.32;6.97;;;;;;;9.18;79.81;94257.22;5016068;28;20199;-68
2022/12/10 02:13:32;;;;;;;8.43;6.75;;;;;;;9.19;80.02;94263.50;5015529;28;20210;-68
2022/12/10 02:16:03;;;;;;;9.57;7.70;;;;;;;9.19;80.12;94260.75;5016813;28;20211;-68
2022/12/10 02:18:33;;;;;;;8.73;6.28;;;;;;;9.18;80.08;94243.47;5016731;28;20242;-67
2022/12/10 02:21:03;;;;;;;10.80;8.13;;;;;;;9.19;80.28;94238.75;5015800;28;20202;-68
2022/12/10 02:23:36;;;;;;;9.15;7.15;;;;;;;9.18;79.91;94237.97;5015614;28;20201;-68
2022/12/10 02:26:07;;;;;;;10.40;6.78;;;;;;;9.17;80.09;94236.38;5014381;28;20238;-68
2022/12/10 02:28:38;;;;;;;10.20;6.95;;;;;;;9.18;79.92;94237.16;5023824;28;20253;-68
2022/12/10 02:31:06;;;;;;;8.80;6.93;;;;;;;9.22;79.77;94216.03;5018973;28;20287;-68
2022/12/10 02:33:34;;;;;;;10.13;7.00;;;;;;;9.23;79.98;94225.88;5036048;28;20205;-68
2022/12/10 02:36:02;;;;;;;9.43;7.05;;;;;;;9.25;79.43;94207.84;5018557;28;20206;-68
2022/12/10 02:38:31;;;;;;;10.15;7.82;;;;;;;9.27;79.23;94202.78;5019061;28;20198;-68
2022/12/10 02:41:00;;;;;;;9.85;7.50;;;;;;;9.28;79.71;94204.34;5018862;28;20199;-68
2022/12/10 02:43:28;;;;;;;11.20;7.75;;;;;;;9.26;80.22;94194.88;5018288;28;20199;-68
2022/12/10 02:45:56;;;;;;;13.50;8.30;;;;;;;9.25;80.24;94209.78;5035718;28;20214;-68
2022/12/10 02:48:25;;;;;;;10.13;8.02;;;;;;;9.25;80.29;94220.78;5018285;28;20264;-68
2022/12/10 02:50:52;;;;;;;9.57;7.97;;;;;;;9.25;80.44;94210.59;5018367;28;20214;-68
2022/12/10 02:53:18;;;;;;;14.13;9.90;;;;;;;9.22;80.67;94225.06;5018121;28;20206;-68
2022/12/10 02:55:55;;;;;;;11.93;9.45;;;;;;;9.25;80.30;94218.84;5018258;28;20198;-68
2022/12/10 02:58:27;;;;;;;11.52;9.77;;;;;;;9.26;80.43;94217.69;5018358;28;20209;-68
2022/12/10 03:00:59;;;;;;;11.52;9.32;;;;;;;9.23;80.83;94215.66;5018856;28;20209;-68
2022/12/10 03:03:37;;;;;;;11.77;8.85;;;;;;;9.25;80.61;94224.34;5018157;28;20202;-68
2022/12/10 03:06:11;;;;;;;11.43;9.68;;;;;;;9.26;80.67;94208.63;5035533;28;20209;-68
2022/12/10 03:08:41;;;;;;;12.18;8.85;;;;;;;9.26;80.91;94220.44;5018549;28;20205;-68
2022/12/10 03:11:12;;;;;;;10.27;8.32;;;;;;;9.30;80.77;94212.25;5035602;28;20174;-68
2022/12/10 03:13:45;;;;;;;10.05;8.38;;;;;;;9.32;80.62;94212.66;5017686;28;20199;-68
2022/12/10 03:16:12;;;;;;;12.32;8.85;;;;;;;9.33;81.49;94209.56;5017895;28;20198;-68
2022/12/10 03:18:40;;;;;;;10.90;9.32;;;;;;;9.28;81.83;94196.09;5018281;28;20222;-68
2022/12/10 03:21:08;;;;;;;10.35;8.45;;;;;;;9.28;81.94;94196.09;5035326;28;20256;-68
2022/12/10 03:23:39;;;;;;;10.73;9.32;;;;;;;9.32;81.87;94194.19;5017888;28;20221;-68
2022/12/10 03:26:06;;;;;;;10.65;8.73;;;;;;;9.28;81.92;94192.56;5017810;28;20214;-68
2022/12/10 03:28:36;;;;;;;9.75;7.45;;;;;;;9.26;81.58;94200.38;5014578;28;20234;-68
2022/12/10 03:31:04;;;;;;;12.90;7.65;;;;;;;9.29;81.31;94200.44;5015362;28;20238;-68
2022/12/10 03:33:31;;;;;;;10.10;7.28;;;;;;;9.32;81.14;94198.91;5015158;28;20199;-68
2022/12/10 03:36:00;;;;;;;10.85;7.40;;;;;;;9.33;81.07;94203.25;5015272;28;20230;-68
2022/12/10 03:38:27;;;;;;;13.77;7.80;;;;;;;9.30;81.04;94196.53;5018538;28;20253;-69
2022/12/10 03:40:54;;;;;;;11.30;8.05;;;;;;;9.30;81.09;94193.00;5019181;28;20199;-68
2022/12/10 03:43:22;;;;;;;9.15;7.90;;;;;;;9.30;81.21;94188.28;5019457;28;20191;-68
2022/12/10 03:45:49;;;;;;;10.80;8.10;;;;;;;9.29;81.54;94189.44;5018148;28;20213;-67
2022/12/10 03:48:16;;;;;;;10.82;7.55;;;;;;;9.30;81.57;94176.50;5019137;28;20570;-68
2022/12/10 03:50:43;;;;;;;11.95;7.40;;;;;;;9.31;81.74;94154.09;5018736;28;20199;-68
2022/12/10 03:53:11;;;;;;;9.90;7.15;;;;;;;9.31;81.81;94156.84;5019381;28;20198;-68
2022/12/10 03:55:39;;;;;;;8.77;7.70;;;;;;;9.36;81.71;94161.25;5018455;28;20230;-68
2022/12/10 03:58:06;;;;;;;11.43;8.05;;;;;;;9.37;81.90;94166.41;5019194;28;20273;-68
2022/12/10 04:00:33;;;;;;;9.77;7.82;;;;;;;9.38;82.05;94167.19;5019223;28;20191;-68
2022/12/10 04:03:00;;;;;;;12.10;7.88;;;;;;;9.37;82.07;94191.16;5018171;28;20203;-68
2022/12/10 04:05:26;;;;;;;11.07;8.00;;;;;;;9.42;82.28;94181.81;5017987;28;20202;-68
2022/12/10 04:07:53;;;;;;;9.13;8.18;;;;;;;9.47;81.92;94187.00;5017969;28;20219;-68
2022/12/10 04:10:21;;;;;;;10.73;8.18;;;;;;;9.51;82.10;94178.78;5017990;28;20210;-68
2022/12/10 04:16:26;;;;;;;11.32;7.85;;;;;;;9.54;82.23;94169.81;5018380;28;20232;-68
2022/12/10 04:18:23;;;;;;;8.70;6.75;;;;;;;9.59;83.20;94164.78;5017513;28;20281;-68
2022/12/10 04:29:04;;;;;;;10.23;8.45;;;;;;;9.75;83.84;94202.41;5017503;28;20243;-68
2022/12/10 04:31:31;;;;;;;10.88;7.85;;;;;;;9.77;83.69;94211.09;5017826;28;20199;-68
2022/12/10 04:33:58;;;;;;;10.55;9.27;;;;;;;9.81;83.62;94207.25;5017600;28;20195;-68
2022/12/10 04:36:26;;;;;;;12.50;9.27;;;;;;;9.83;83.66;94199.38;5018032;28;20196;-67
2022/12/10 04:38:53;;;;;;;11.57;7.15;;;;;;;9.79;83.82;94190.28;5018257;28;20262;-67
2022/12/10 04:41:22;;;;;;;9.25;6.75;;;;;;;9.77;83.80;94203.63;5017465;28;20200;-68
2022/12/10 04:43:48;;;;;;;6.65;6.05;;;;;;;9.80;83.65;94207.59;5017430;28;20195;-68
2022/12/10 04:46:15;;;;;;;7.47;6.15;;;;;;;9.81;83.58;94204.47;5018225;28;20255;-68
2022/12/10 04:48:42;;;;;;;9.65;6.07;;;;;;;9.83;83.03;94210.41;5017607;28;20195;-68
2022/12/10 04:51:09;;;;;;;7.55;5.40;;;;;;;9.84;82.70;94197.41;5017351;28;20207;-68
2022/12/10 04:53:35;;;;;;;8.90;5.95;;;;;;;9.86;82.51;94203.38;5017851;28;20603;-68
2022/12/10 04:56:04;;;;;;;6.22;5.05;;;;;;;9.85;82.56;94201.78;5017194;28;20222;-68
2022/12/10 04:58:32;;;;;;;8.98;6.00;;;;;;;9.83;82.62;94196.63;5017597;28;20195;-68
2022/12/10 05:01:03;;;;;;;6.43;5.47;;;;;;;9.83;82.86;94209.59;5033413;28;20257;-68
2022/12/10 05:03:29;;;;;;;7.00;5.72;;;;;;;9.83;82.87;94196.63;5016772;28;20195;-68
2022/12/10 05:05:57;;;;;;;8.18;6.07;;;;;;;9.85;82.92;94197.06;5017814;28;20195;-69
2022/12/10 05:08:24;;;;;;;8.18;6.35;;;;;;;9.82;82.99;94197.81;5017878;28;20198;-68
2022/12/10 05:10:51;;;;;;;7.57;6.75;;;;;;;9.82;83.60;94202.53;5017225;28;20195;-68
2022/12/10 05:13:17;;;;;;;8.23;5.95;;;;;;;9.81;83.99;94195.44;5017789;28;20194;-68
2022/12/10 05:15:46;;;;;;;8.05;6.25;;;;;;;9.80;83.97;94188.31;5016774;28;20195;-69
2022/12/10 05:18:13;;;;;;;8.68;7.50;;;;;;;9.76;84.15;94176.44;5017790;28;20191;-68
2022/12/10 05:20:39;;;;;;;7.32;6.32;;;;;;;9.75;84.41;94174.88;5016914;28;20202;-68
2022/12/10 05:25:59;;;;;;;10.07;7.00;;;;;;;9.73;84.75;94190.94;5017498;28;20183;-68
2022/12/10 05:28:27;;;;;;;9.73;6.65;;;;;;;9.73;84.26;94194.53;5016181;28;20235;-68
2022/12/10 05:30:55;;;;;;;9.05;6.70;;;;;;;9.74;84.20;94195.31;5016732;28;20218;-68
2022/12/10 05:33:23;;;;;;;10.50;7.40;;;;;;;9.75;84.26;94192.19;5016531;28;20198;-68
2022/12/10 05:35:54;;;;;;;8.80;7.75;;;;;;;9.76;84.45;94192.97;5017045;28;20191;-69
2022/12/10 05:38:21;;;;;;;8.98;6.82;;;;;;;9.76;84.29;94195.72;5016682;28;20207;-68
2022/12/10 05:40:48;;;;;;;8.18;6.57;;;;;;;9.79;84.85;94197.75;5017348;28;20246;-68
2022/12/10 05:43:15;;;;;;;10.45;6.43;;;;;;;9.76;84.40;94193.75;5015939;28;20215;-68
2022/12/10 05:45:42;;;;;;;7.38;6.43;;;;;;;9.75;84.36;94200.44;5016303;28;20202;-68
2022/12/10 05:48:12;;;;;;;7.82;7.03;;;;;;;9.75;84.50;94207.91;5015979;28;20203;-68
2022/12/10 05:50:39;;;;;;;9.00;7.10;;;;;;;9.75;84.59;94208.69;5016174;28;20202;-68
2022/12/10 05:53:06;;;;;;;7.65;6.90;;;;;;;9.78;84.37;94198.91;5017142;28;20187;-68
2022/12/10 05:55:33;;;;;;;8.68;7.38;;;;;;;9.78;84.77;94191.44;5016985;28;20214;-68
2022/12/10 05:58:00;;;;;;;9.40;7.35;;;;;;;9.79;84.52;94208.75;5016868;28;20187;-68
2022/12/10 06:00:27;;;;;;;10.52;7.65;;;;;;;9.77;84.67;94222.13;5032432;28;20195;-68
2022/12/10 06:02:54;;;;;;;11.25;8.18;;;;;;;9.80;84.76;94199.31;5015892;28;20202;-68
2022/12/10 06:05:22;;;;;;;9.93;8.07;;;;;;;9.83;84.45;94218.66;5015785;28;20191;-68
2022/12/10 06:07:49;;;;;;;10.48;7.50;;;;;;;9.85;84.04;94215.56;5015560;28;20678;-67
2022/12/10 06:10:16;;;;;;;10.30;7.32;;;;;;;9.87;84.30;94211.25;5016201;28;20191;-68
2022/12/10 06:12:43;;;;;;;8.45;7.60;;;;;;;9.88;84.27;94228.59;5016073;28;20199;-68
2022/12/10 06:15:10;;;;;;;9.25;7.93;;;;;;;9.87;84.34;94233.28;5015861;28;20211;-68
2022/12/10 06:17:37;;;;;;;9.57;8.45;;;;;;;9.86;84.42;94217.94;5015633;28;20546;-68
2022/12/10 06:20:04;;;;;;;11.35;8.57;;;;;;;9.88;84.79;94220.34;5015587;28;20202;-68
2022/12/10 06:22:34;;;;;;;12.20;7.85;;;;;;;9.84;84.58;94216.69;5016123;28;20195;-68
2022/12/10 06:25:01;;;;;;;10.80;8.60;;;;;;;9.85;84.72;94208.09;5015798;28;20206;-68
2022/12/10 06:27:27;;;;;;;11.55;8.15;;;;;;;9.88;84.77;94185.31;5015306;28;20289;-68
2022/12/10 06:29:54;;;;;;;8.18;7.38;;;;;;;9.89;84.79;94173.13;5014966;28;20242;-68
2022/12/10 06:32:21;;;;;;;9.60;7.30;;;;;;;9.89;85.04;94191.63;5015684;28;20199;-68
2022/12/10 06:34:47;;;;;;;8.35;7.43;;;;;;;9.85;84.83;94177.78;5015290;28;20195;-68
2022/12/10 06:37:14;;;;;;;11.63;8.40;;;;;;;9.87;85.02;94172.69;5015321;28;20203;-68
2022/12/10 06:39:42;;;;;;;11.50;8.15;;;;;;;9.86;85.05;94192.34;5015195;28;20595;-68
2022/12/10 06:42:09;;;;;;;10.00;8.25;;;;;;;9.84;85.20;94194.66;5015233;28;20206;-68
2022/12/10 06:44:36;;;;;;;12.95;8.30;;;;;;;9.86;85.17;94192.34;5015804;28;20599;-68
2022/12/10 06:47:02;;;;;;;8.77;7.63;;;;;;;9.89;85.38;94199.88;5015037;28;20216;-68
2022/12/10 06:49:29;;;;;;;11.60;8.20;;;;;;;9.89;85.07;94214.44;5015805;28;20191;-68
2022/12/10 06:51:56;;;;;;;12.10;8.52;;;;;;;9.92;85.21;94212.13;5015821;28;20199;-68
2022/12/10 06:54:23;;;;;;;9.25;7.80;;;;;;;9.94;85.29;94210.56;5015134;28;20201;-68
2022/12/10 06:56:52;;;;;;;9.70;7.55;;;;;;;9.98;85.40;94205.13;5015215;28;20194;-68
2022/12/10 06:59:20;;;;;;;10.82;8.18;;;;;;;10.01;85.56;94215.41;5014893;28;20612;-68
2022/12/10 07:01:47;;;;;;;9.43;7.63;;;;;;;10.01;85.59;94202.41;5015802;28;20215;-70
2022/12/10 07:04:14;;;;;;;9.40;8.27;;;;;;;10.01;85.80;94207.13;5014863;28;20229;-70
2022/12/10 07:06:41;;;;;;;13.38;10.25;;;;;;;10.00;86.35;94228.38;5015707;28;20215;-70
2022/12/10 07:09:09;;;;;;;13.50;12.02;;;;;;;10.05;86.06;94236.31;5015788;28;20218;-70
2022/12/10 07:11:36;;;;;;;13.50;11.80;;;;;;;10.08;85.90;94221.81;5014979;28;20210;-71
2022/12/10 07:14:08;;;;;;;10.63;9.50;;;;;;;10.12;86.05;94221.88;5015592;28;20229;-71
2022/12/10 07:16:35;;;;;;;10.90;8.73;;;;;;;10.14;86.11;94216.78;5014850;28;20233;-71
2022/12/10 07:19:03;;;;;;;15.05;8.35;;;;;;;10.12;86.31;94211.63;5015749;28;20183;-70
2022/12/10 07:21:32;;;;;;;17.25;8.18;;;;;;;10.12;86.59;94203.38;5014807;28;20631;-72
2022/12/10 07:24:02;;;;;;;14.00;10.02;;;;;;;10.11;86.36;94203.75;5015493;28;20274;-71
2022/12/10 07:26:30;;;;;;;17.08;9.57;;;;;;;10.10;86.52;94205.72;5014494;28;20207;-72
2022/12/10 07:28:57;;;;;;;12.23;8.93;;;;;;;10.14;86.09;94180.97;5025710;28;20319;-70
2022/12/10 07:31:25;;;;;;;12.13;8.20;;;;;;;10.15;86.47;94184.53;5034229;28;20206;-70
2022/12/10 07:33:53;;;;;;;11.20;7.90;;;;;;;10.20;86.29;94200.72;5017877;28;20202;-70
2022/12/10 07:36:22;;;;;;;11.48;7.55;;;;;;;10.20;85.67;94204.28;5035139;28;20194;-70
2022/12/10 07:38:49;;;;;;;8.43;7.45;;;;;;;10.24;85.78;94196.06;5018202;28;20206;-69
2022/12/10 07:41:16;;;;;;;11.05;7.57;;;;;;;10.25;85.57;94195.72;5034186;28;20530;-70
2022/12/10 07:43:45;;;;;;;8.95;7.07;;;;;;;10.29;85.18;94210.34;5017715;28;20289;-70
2022/12/10 07:46:13;;;;;;;7.45;6.55;;;;;;;10.28;84.95;94206.00;5017687;28;20191;-70
2022/12/10 07:48:45;;;;;;;8.27;7.07;;;;;;;10.34;84.91;94204.50;5034949;28;20206;-70
2022/12/10 07:51:12;;;;;;;8.70;7.20;;;;;;;10.37;85.08;94194.72;5035109;28;20218;-70
2022/12/10 07:53:39;;;;;;;9.60;7.40;;;;;;;10.42;85.00;94201.84;5017670;28;20206;-70
2022/12/10 07:56:07;;;;;;;8.13;7.25;;;;;;;10.47;84.71;94194.06;5017732;28;20187;-70
2022/12/10 07:58:35;;;;;;;8.55;6.82;;;;;;;10.48;84.37;94187.38;5017845;28;20248;-70
2022/12/10 08:01:07;;;;;;;10.27;7.20;;;;;;;10.53;84.50;94183.50;5017797;28;20209;-70
2022/12/10 08:03:34;;;;;;;8.23;6.63;;;;;;;10.56;84.34;94177.22;5034687;28;20190;-70
2022/12/10 08:06:04;;;;;;;8.60;7.53;;;;;;;10.58;84.03;94172.16;5033560;28;20214;-70
2022/12/10 08:08:30;;;;;;;8.77;6.93;;;;;;;10.60;84.12;94165.09;5034487;28;20696;-70
2022/12/10 08:11:00;;;;;;;9.40;6.63;;;;;;;10.64;83.79;94167.09;5034945;28;20182;-70
2022/12/10 08:13:26;;;;;;;9.00;7.60;;;;;;;10.64;84.10;94159.63;5017479;28;20206;-70
2022/12/10 08:15:53;;;;;;;12.75;7.45;;;;;;;10.67;83.70;94145.06;5017146;28;20268;-70
2022/12/10 08:18:20;;;;;;;8.98;7.50;;;;;;;10.71;83.77;94156.97;5034843;28;20202;-70
2022/12/10 08:20:47;;;;;;;10.52;7.60;;;;;;;10.77;83.82;94160.16;5017420;28;20202;-70
2022/12/10 08:23:15;;;;;;;11.98;8.30;;;;;;;10.80;84.06;94173.22;5035675;28;20183;-70
2022/12/10 08:25:43;;;;;;;10.77;8.02;;;;;;;10.85;83.56;94159.06;5021086;28;20202;-70
2022/12/10 08:28:09;;;;;;;11.27;9.68;;;;;;;10.88;83.57;94149.25;5017195;28;20235;-71
2022/12/10 08:30:36;;;;;;;11.00;8.32;;;;;;;10.94;83.68;94148.53;5017807;28;20599;-70
2022/12/10 08:33:03;;;;;;;10.13;8.95;;;;;;;10.98;83.37;94146.63;5018499;28;20202;-70
2022/12/10 08:35:30;;;;;;;10.02;8.38;;;;;;;11.02;83.12;94141.13;5018637;28;20187;-71
2022/12/10 08:37:57;;;;;;;15.50;13.90;;;;;;;10.99;82.86;94139.13;5018501;28;20188;-70
2022/12/10 08:40:25;;;;;;;21.77;19.48;;;;;;;10.99;83.05;94136.38;5018460;28;20191;-70
2022/12/10 08:42:53;;;;;;;20.83;18.52;;;;;;;11.00;83.01;94138.75;5018583;28;20191;-70
2022/12/10 08:45:19;;;;;;;21.95;19.85;;;;;;;11.04;83.37;94147.88;5018388;28;20191;-70
2022/12/10 08:47:46;;;;;;;21.45;18.05;;;;;;;11.14;83.46;94148.34;5018221;28;20219;-71
2022/12/10 08:50:13;;;;;;;19.77;17.55;;;;;;;11.24;83.01;94140.16;5017873;28;20265;-70
2022/12/10 08:52:40;;;;;;;49.40;45.25;;;;;;;11.33;83.16;94134.34;5017250;28;20202;-70
2022/12/10 08:55:08;;;;;;;51.67;47.28;;;;;;;11.42;82.65;94140.34;5017496;28;20203;-70
2022/12/10 08:57:36;;;;;;;35.53;32.42;;;;;;;11.52;82.34;94128.59;5017360;28;20206;-70
2022/12/10 09:00:04;;;;;;;33.35;30.15;;;;;;;11.59;82.32;94118.78;5018204;28;20214;-70
2022/12/10 09:02:31;;;;;;;14.60;13.10;;;;;;;11.54;81.37;94115.19;5017111;28;20210;-71
2022/12/10 09:04:58;;;;;;;28.52;26.00;;;;;;;11.59;82.14;94116.03;5017527;28;20206;-71
2022/12/10 09:07:25;;;;;;;50.28;45.90;;;;;;;11.55;82.16;94124.28;5033625;28;20203;-70
2022/12/10 09:09:52;;;;;;;20.15;18.25;;;;;;;11.67;82.25;94109.38;5016600;28;20207;-70
2022/12/10 09:12:18;;;;;;;11.90;10.55;;;;;;;11.76;81.88;94123.66;5017150;28;20210;-70
2022/12/10 09:14:47;;;;;;;11.65;9.70;;;;;;;11.91;81.77;94113.50;5017728;28;20203;-70
2022/12/10 09:17:14;;;;;;;10.32;9.00;;;;;;;11.91;80.65;94111.56;5017486;28;20188;-73
2022/12/10 09:19:41;;;;;;;12.50;9.10;;;;;;;11.98;80.21;94110.81;5016681;28;20206;-73
2022/12/10 09:22:08;;;;;;;12.25;11.15;;;;;;;12.05;80.02;94119.13;5016354;28;20669;-73
2022/12/10 09:24:35;;;;;;;15.60;13.23;;;;;;;12.20;80.29;94107.00;5017053;28;20203;-73
2022/12/10 09:27:02;;;;;;;15.98;13.75;;;;;;;12.34;80.12;94097.19;5016920;28;20532;-73
2022/12/10 09:29:29;;;;;;;17.05;15.32;;;;;;;12.37;79.06;94094.44;5031840;28;20604;-72
2022/12/10 09:31:57;;;;;;;10.18;9.10;;;;;;;12.45;78.06;94089.72;5037076;28;20248;-72
2022/12/10 09:34:24;;;;;;;12.02;9.70;;;;;;;12.40;78.39;94082.59;5019664;28;20202;-72
2022/12/10 09:36:51;;;;;;;12.43;9.57;;;;;;;12.37;78.66;94066.00;5036729;28;20214;-72
2022/12/10 09:39:18;;;;;;;14.50;12.80;;;;;;;12.63;78.93;94065.69;5019820;28;20202;-73
2022/12/10 09:41:58;;;;;;;18.55;16.67;;;;;;;12.75;77.74;94072.88;5019640;28;20206;-72
2022/12/10 09:44:33;;;;;;;16.15;12.30;;;;;;;12.86;78.01;94081.19;5019325;28;20198;-72
2022/12/10 09:47:03;;;;;;;10.88;9.88;;;;;;;12.93;77.26;94075.69;5019877;28;20210;-73
2022/12/10 09:49:35;;;;;;;10.85;9.73;;;;;;;13.17;77.27;94071.34;5036976;28;20206;-72
2022/12/10 09:52:04;;;;;;;11.40;9.73;;;;;;;13.46;76.42;94066.66;5036723;28;20186;-72
2022/12/10 09:54:33;;;;;;;11.27;9.57;;;;;;;13.66;75.08;94070.63;5036601;28;20187;-72
2022/12/10 09:57:02;;;;;;;10.38;9.38;;;;;;;13.71;74.17;94061.91;5036588;28;20182;-72
2022/12/10 09:59:33;;;;;;;9.93;8.55;;;;;;;13.85;74.53;94066.63;5036753;28;20201;-72
2022/12/10 10:02:18;;;;;;;8.45;7.65;;;;;;;14.08;73.81;94060.66;5018948;28;20654;-72
2022/12/10 10:04:45;;;;;;;10.70;8.00;;;;;;;14.20;73.16;94057.47;5036932;28;20186;-73
2022/12/10 10:07:18;;;;;;;9.23;8.27;;;;;;;14.28;72.48;94055.47;5036742;28;20588;-72
2022/12/10 10:09:45;;;;;;;9.43;8.50;;;;;;;14.42;72.18;94049.06;5036434;28;20210;-72
2022/12/10 10:12:14;;;;;;;12.93;11.65;;;;;;;14.33;71.32;94049.47;5019550;28;20205;-72
2022/12/10 10:14:42;;;;;;;12.68;11.02;;;;;;;14.26;71.28;94051.50;5019502;28;20203;-72
2022/12/10 10:17:13;;;;;;;13.35;11.75;;;;;;;14.25;71.34;94052.69;5036409;28;20186;-72
2022/12/10 10:19:41;;;;;;;14.35;10.45;;;;;;;14.18;71.25;94034.88;5018959;28;20581;-72
2022/12/10 10:22:09;;;;;;;11.82;9.90;;;;;;;14.12;71.39;94030.94;5018806;28;20194;-72
2022/12/10 10:24:38;;;;;;;11.20;9.38;;;;;;;14.08;71.53;94023.81;5036149;28;20210;-72
2022/12/10 10:27:14;;;;;;;10.77;8.55;;;;;;;14.00;71.76;94022.25;5018876;28;20215;-72
2022/12/10 10:29:41;;;;;;;10.73;7.65;;;;;;;13.93;72.44;94014.75;5035612;28;20311;-72
2022/12/10 10:32:15;;;;;;;8.48;7.13;;;;;;;13.81;72.62;93995.78;5018825;28;20201;-72
2022/12/10 10:34:42;;;;;;;8.90;7.50;;;;;;;13.76;72.73;93988.66;5036145;28;20201;-72
2022/12/10 10:37:15;;;;;;;13.88;10.98;;;;;;;13.68;72.96;93987.88;5018878;28;20194;-72
2022/12/10 10:39:48;;;;;;;12.95;9.95;;;;;;;13.75;73.02;94000.16;5018389;28;20260;-72
2022/12/10 10:42:30;;;;;;;9.82;7.32;;;;;;;13.66;72.80;93995.81;5018692;28;20532;-72
2022/12/10 10:44:58;;;;;;;8.02;7.22;;;;;;;13.63;73.10;94001.38;5018612;28;20194;-72
2022/12/10 10:47:29;;;;;;;10.57;6.90;;;;;;;13.58;72.73;93997.03;5034746;28;20195;-72
2022/12/10 10:49:55;;;;;;;8.57;6.85;;;;;;;13.60;73.31;93988.28;5035580;28;20211;-72
2022/12/10 10:52:22;;;;;;;8.15;6.80;;;;;;;13.60;73.37;93986.31;5035683;28;20198;-72
2022/12/10 10:54:50;;;;;;;12.45;7.35;;;;;;;13.53;72.35;93978.00;5035733;28;20198;-72
2022/12/10 10:57:21;;;;;;;12.65;11.30;;;;;;;13.51;73.02;93982.38;5035484;28;20248;-73
2022/12/10 10:59:48;;;;;;;15.43;13.82;;;;;;;13.56;73.37;93988.31;5018221;28;20202;-72
2022/12/10 11:02:20;;;;;;;12.35;10.82;;;;;;;13.68;72.85;93989.84;5035551;28;20261;-73
2022/12/10 11:04:49;;;;;;;9.85;8.80;;;;;;;13.76;72.61;93985.09;5035557;28;20217;-72
2022/12/10 11:07:29;;;;;;;10.73;9.23;;;;;;;13.78;72.72;93977.97;5035596;28;20182;-72
2022/12/10 11:09:57;;;;;;;13.07;9.50;;;;;;;13.71;72.25;93975.22;5018127;28;20272;-73
2022/12/10 11:12:35;;;;;;;15.05;13.55;;;;;;;13.71;72.46;93953.03;5035805;28;20190;-72
2022/12/10 11:15:02;;;;;;;12.00;10.80;;;;;;;13.71;72.20;93950.28;5018202;28;20209;-72
2022/12/10 11:17:29;;;;;;;7.78;7.05;;;;;;;13.69;72.18;93941.59;5035458;28;20195;-72
2022/12/10 11:20:01;;;;;;;11.50;10.30;;;;;;;13.64;72.28;93931.69;5035296;28;20182;-72
2022/12/10 11:22:30;;;;;;;14.15;12.13;;;;;;;13.69;72.64;93924.97;5035488;28;20209;-72
2022/12/10 11:24:57;;;;;;;11.23;9.80;;;;;;;13.79;72.17;93932.44;5018171;28;20209;-72
2022/12/10 11:27:39;;;;;;;14.60;13.20;;;;;;;13.96;72.20;93922.47;5017977;28;20501;-72
2022/12/10 11:30:09;;;;;;;14.77;13.27;;;;;;;14.06;72.11;93929.19;5034587;28;20238;-72
2022/12/10 11:32:48;;;;;;;13.13;10.48;;;;;;;14.14;72.23;93927.94;5035471;28;20496;-72
2022/12/10 11:35:22;;;;;;;10.88;7.95;;;;;;;14.20;71.59;93927.13;5034244;28;20202;-71
2022/12/10 11:37:58;;;;;;;10.23;8.73;;;;;;;14.28;71.34;93930.66;5035253;28;20191;-71
2022/12/10 11:40:35;;;;;;;9.80;7.65;;;;;;;14.41;70.56;93920.66;5017168;28;20264;-71
2022/12/10 11:43:14;;;;;;;9.45;8.48;;;;;;;14.55;70.27;93922.59;5034158;28;20202;-71
2022/12/10 11:45:49;;;;;;;10.20;8.48;;;;;;;14.65;69.82;93921.75;5017792;28;20202;-68
2022/12/10 11:48:28;;;;;;;8.52;7.22;;;;;;;14.59;69.23;93917.00;5017940;28;20217;-69
2022/12/10 11:51:01;;;;;;;9.02;8.15;;;;;;;14.59;69.58;93908.69;5018037;28;20190;-69
2022/12/10 11:53:42;;;;;;;10.13;9.00;;;;;;;14.46;69.79;93897.28;5034977;28;20224;-69